createdAt,value
2023-06-07T00:00:34.136Z,19.81
2023-06-07T00:05:37.599Z,19.84
2023-06-07T00:10:39.101Z,19.76
2023-06-07T00:15:40.609Z,19.75
2023-06-07T00:20:46.513Z,19.80
2023-06-07T00:25:48.087Z,19.89
2023-06-07T00:30:49.535Z,19.90
2023-06-07T00:35:51.583Z,19.96
2023-06-07T00:40:57.985Z,20.01
2023-06-07T00:45:59.686Z,20.01
2023-06-07T00:51:01.355Z,20.04
2023-06-07T00:56:03.550Z,20.08
2023-06-07T01:01:06.941Z,20.10
2023-06-07T01:06:08.372Z,20.11
2023-06-07T01:11:11.969Z,20.07
2023-06-07T01:16:14.172Z,20.04
2023-06-07T01:21:19.891Z,20.07
2023-06-07T01:26:21.605Z,20.10
2023-06-07T01:31:24.052Z,20.12
2023-06-07T01:36:26.922Z,20.08
2023-06-07T01:41:30.578Z,20.12
2023-06-07T01:46:34.954Z,20.18
2023-06-07T01:51:36.510Z,20.15
2023-06-07T01:57:06.074Z,20.12
2023-06-07T02:02:16.846Z,20.07
2023-06-07T02:07:24.917Z,19.97
2023-06-07T02:12:27.906Z,20.00
2023-06-07T02:17:30.003Z,19.88
2023-06-07T02:22:31.702Z,19.95
2023-06-07T02:27:33.118Z,19.89
2023-06-07T02:32:34.786Z,19.84
2023-06-07T02:37:36.652Z,19.80
2023-06-07T02:42:38.242Z,19.72
2023-06-07T02:47:40.052Z,19.66
2023-06-07T02:52:42.735Z,19.70
2023-06-07T02:57:44.254Z,19.76
2023-06-07T03:02:45.931Z,19.80
2023-06-07T03:07:47.544Z,19.72
2023-06-07T03:12:48.981Z,19.71
2023-06-07T03:17:50.867Z,19.80
2023-06-07T03:22:52.385Z,19.81
2023-06-07T03:27:53.789Z,19.83
2023-06-07T03:32:55.483Z,19.90
2023-06-07T03:37:56.947Z,19.89
2023-06-07T03:43:00.528Z,19.85
2023-06-07T03:48:02.143Z,19.89
2023-06-07T03:53:03.703Z,19.96
2023-06-07T03:58:06.127Z,19.96
2023-06-07T04:03:08.596Z,19.93
2023-06-07T04:08:10.998Z,19.91
2023-06-07T04:13:12.618Z,19.95
2023-06-07T04:18:14.125Z,19.96
2023-06-07T04:23:16.158Z,20.02
2023-06-07T04:28:17.867Z,20.07
2023-06-07T04:33:20.143Z,20.12
2023-06-07T04:38:23.494Z,20.16
2023-06-07T04:43:25.111Z,20.21
2023-06-07T04:48:30.114Z,20.23
2023-06-07T04:53:37.350Z,20.22
2023-06-07T04:58:41.347Z,20.23
2023-06-07T05:03:43.830Z,20.18
2023-06-07T05:08:46.233Z,20.17
2023-06-07T05:13:50.273Z,20.36
2023-06-07T05:18:51.794Z,20.47
2023-06-07T05:23:53.222Z,20.58
2023-06-07T05:28:54.696Z,20.70
2023-06-07T05:33:56.175Z,20.79
2023-06-07T05:38:57.681Z,20.95
2023-06-07T05:43:59.117Z,21.05
2023-06-07T05:49:00.539Z,21.02
2023-06-07T05:54:02.731Z,21.14
2023-06-07T05:59:04.247Z,21.16
2023-06-07T06:04:05.753Z,21.32
2023-06-07T06:09:07.436Z,21.32
2023-06-07T06:14:08.886Z,21.33
2023-06-07T06:19:10.623Z,21.33
2023-06-07T06:24:12.198Z,21.45
2023-06-07T06:29:13.701Z,21.64
2023-06-07T06:34:15.121Z,21.83
2023-06-07T06:39:16.767Z,22.04
2023-06-07T06:44:18.247Z,22.21
2023-06-07T06:49:19.739Z,22.42
2023-06-07T06:54:22.104Z,22.70
2023-06-07T06:59:23.497Z,22.91
2023-06-07T07:04:24.910Z,23.16
2023-06-07T07:09:26.422Z,23.35
2023-06-07T07:14:27.964Z,23.55
2023-06-07T07:19:29.542Z,23.86
2023-06-07T07:24:31.122Z,24.07
2023-06-07T07:29:33.173Z,24.11
2023-06-07T07:34:34.622Z,24.04
2023-06-07T07:39:37.093Z,24.17
2023-06-07T07:44:38.788Z,24.12
2023-06-07T07:49:40.192Z,24.14
2023-06-07T07:54:41.653Z,24.30
2023-06-07T07:59:43.123Z,24.37
2023-06-07T08:04:44.628Z,24.14
2023-06-07T08:09:46.068Z,24.41
2023-06-07T08:14:47.514Z,24.53
2023-06-07T08:19:49.128Z,24.57
2023-06-07T08:24:50.546Z,24.82
2023-06-07T08:29:51.950Z,24.83
2023-06-07T08:34:53.510Z,24.81
2023-06-07T08:39:55.058Z,25.06
2023-06-07T08:44:56.439Z,25.12
2023-06-07T08:49:58.623Z,25.27
2023-06-07T08:55:04.775Z,25.60
2023-06-07T09:00:08.930Z,25.75
2023-06-07T09:05:10.633Z,25.77
2023-06-07T09:10:14.260Z,25.87
2023-06-07T09:15:22.489Z,26.00
2023-06-07T09:20:25.781Z,26.62
2023-06-07T09:25:31.437Z,27.04
2023-06-07T09:30:32.919Z,27.28
2023-06-07T09:35:34.309Z,27.24
2023-06-07T09:40:35.765Z,27.55
2023-06-07T09:45:37.324Z,27.78
2023-06-07T09:50:38.945Z,27.74
2023-06-07T09:55:40.471Z,27.91
2023-06-07T10:00:43.666Z,28.03
2023-06-07T10:05:45.091Z,28.22
2023-06-07T10:10:49.557Z,28.35
2023-06-07T10:15:52.344Z,28.17
2023-06-07T10:20:59.055Z,28.04
2023-06-07T10:26:05.693Z,27.99
2023-06-07T10:31:12.022Z,28.47
2023-06-07T10:36:14.866Z,28.82
2023-06-07T10:41:16.590Z,29.05
2023-06-07T10:46:24.492Z,28.91
2023-06-07T10:51:52.925Z,28.65
2023-06-07T10:56:54.527Z,28.81
2023-06-07T11:02:25.577Z,28.56
2023-06-07T11:07:29.771Z,28.36
2023-06-07T11:12:44.918Z,28.62
2023-06-07T11:18:01.373Z,28.41
2023-06-07T11:23:28.927Z,28.13
2023-06-07T11:28:34.167Z,28.34
2023-06-07T11:33:36.423Z,28.55
2023-06-07T11:38:39.080Z,28.97
2023-06-07T11:43:41.101Z,29.39
2023-06-07T11:48:42.597Z,29.57
2023-06-07T11:53:44.113Z,29.67
2023-06-07T11:58:45.574Z,29.62
2023-06-07T12:03:48.465Z,29.65
2023-06-07T12:08:52.833Z,29.65
2023-06-07T12:13:55.003Z,29.74
2023-06-07T12:18:57.103Z,29.76
2023-06-07T12:24:01.722Z,29.78
2023-06-07T12:29:03.593Z,29.79
2023-06-07T12:34:06.991Z,29.81
2023-06-07T12:39:10.968Z,30.07
2023-06-07T12:44:12.863Z,29.95
2023-06-07T12:49:14.465Z,29.82
2023-06-07T12:54:16.055Z,29.81
2023-06-07T12:59:17.723Z,30.08
2023-06-07T13:04:19.160Z,30.61
2023-06-07T13:09:21.147Z,30.93
2023-06-07T13:14:22.816Z,31.58
2023-06-07T13:19:24.235Z,31.70
2023-06-07T13:24:25.800Z,31.80
2023-06-07T13:29:27.233Z,32.21
2023-06-07T13:34:28.708Z,32.53
2023-06-07T13:39:30.288Z,32.91
2023-06-07T13:44:31.723Z,32.47
2023-06-07T13:49:33.333Z,32.88
2023-06-07T13:54:35.163Z,33.17
2023-06-07T13:59:36.556Z,33.02
2023-06-07T14:04:38.260Z,33.32
2023-06-07T14:09:39.859Z,33.21
2023-06-07T14:14:41.947Z,32.80
2023-06-07T14:19:44.057Z,32.89
2023-06-07T14:24:45.535Z,33.08
2023-06-07T14:29:46.964Z,33.67
2023-06-07T14:34:48.359Z,34.07
2023-06-07T14:39:49.774Z,34.42
2023-06-07T14:44:56.920Z,34.72
2023-06-07T14:49:58.473Z,34.55
2023-06-07T14:54:59.902Z,34.26
2023-06-07T15:00:06.753Z,34.28
2023-06-07T15:05:09.199Z,33.99
2023-06-07T15:10:10.815Z,34.08
2023-06-07T15:15:12.348Z,34.03
2023-06-07T15:20:13.760Z,33.90
2023-06-07T15:25:15.194Z,33.98
2023-06-07T15:30:16.725Z,34.01
2023-06-07T15:35:18.265Z,34.16
2023-06-07T15:40:19.655Z,34.35
2023-06-07T15:45:21.093Z,34.39
2023-06-07T15:50:22.517Z,34.39
2023-06-07T15:55:24.651Z,34.40
2023-06-07T16:00:37.009Z,33.96
2023-06-07T16:05:40.462Z,33.83
2023-06-07T16:10:41.872Z,33.45
2023-06-07T16:15:43.436Z,33.39
2023-06-07T16:20:46.027Z,33.54
2023-06-07T16:25:49.749Z,33.57
2023-06-07T16:30:51.466Z,33.59
2023-06-07T16:35:53.052Z,33.77
2023-06-07T16:40:54.428Z,33.94
2023-06-07T16:45:55.891Z,34.16
2023-06-07T16:50:57.282Z,34.26
2023-06-07T16:55:58.694Z,34.34
2023-06-07T17:01:00.740Z,34.49
2023-06-07T17:06:02.126Z,34.54
2023-06-07T17:11:06.218Z,34.03
2023-06-07T17:16:07.618Z,33.71
2023-06-07T17:21:09.136Z,33.54
2023-06-07T17:26:10.624Z,32.68
2023-06-07T17:31:12.017Z,31.86
2023-06-07T17:36:13.401Z,31.24
2023-06-07T17:41:14.784Z,30.72
2023-06-07T17:46:16.224Z,30.16
2023-06-07T17:51:18.958Z,29.66
2023-06-07T17:56:20.469Z,29.32
2023-06-07T18:01:23.311Z,28.98
2023-06-07T18:06:25.856Z,28.76
2023-06-07T18:11:27.850Z,28.50
2023-06-07T18:16:29.953Z,28.25
2023-06-07T18:21:31.385Z,28.02
2023-06-07T18:26:32.766Z,27.92
2023-06-07T18:31:34.234Z,27.72
2023-06-07T18:36:36.397Z,27.52
2023-06-07T18:41:37.803Z,27.26
2023-06-07T18:46:40.106Z,26.99
2023-06-07T18:51:41.569Z,26.78
2023-06-07T18:56:42.933Z,26.58
2023-06-07T19:01:51.982Z,26.40
2023-06-07T19:06:55.019Z,26.22
2023-06-07T19:11:56.765Z,25.94
2023-06-07T19:16:58.707Z,25.82
2023-06-07T19:22:00.250Z,25.63
2023-06-07T19:27:01.669Z,25.44
2023-06-07T19:32:04.215Z,25.30
2023-06-07T19:37:06.144Z,25.17
2023-06-07T19:42:10.058Z,25.03
2023-06-07T19:47:11.637Z,24.89
2023-06-07T19:52:13.171Z,24.71
2023-06-07T19:57:14.726Z,24.54
2023-06-07T20:02:16.863Z,24.40
2023-06-07T20:07:18.356Z,24.38
2023-06-07T20:12:19.808Z,24.27
2023-06-07T20:17:26.648Z,24.20
2023-06-07T20:22:31.322Z,24.13
2023-06-07T20:27:32.690Z,24.13
2023-06-07T20:32:34.176Z,24.16
2023-06-07T20:37:35.621Z,24.18
2023-06-07T20:42:37.044Z,24.20
2023-06-07T20:47:38.525Z,24.21
2023-06-07T20:52:40.038Z,24.08
2023-06-07T20:57:41.509Z,24.02
2023-06-07T21:02:43.077Z,24.00
2023-06-07T21:07:44.501Z,23.42
2023-06-07T21:12:45.934Z,23.11
2023-06-07T21:17:47.365Z,22.96
2023-06-07T21:22:48.825Z,22.70
2023-06-07T21:27:50.323Z,22.55
2023-06-07T21:32:51.725Z,22.44
2023-06-07T21:37:53.161Z,22.39
2023-06-07T21:42:54.775Z,22.35
2023-06-07T21:47:56.304Z,22.33
2023-06-07T21:52:58.205Z,22.10
2023-06-07T21:57:59.675Z,21.27
2023-06-07T22:03:01.200Z,20.48
2023-06-07T22:08:02.639Z,20.24
2023-06-07T22:13:04.051Z,20.29
2023-06-07T22:18:05.828Z,20.28
2023-06-07T22:23:08.462Z,20.13
2023-06-07T22:28:10.796Z,20.19
2023-06-07T22:33:12.599Z,20.27
2023-06-07T22:38:14.138Z,20.28
2023-06-07T22:43:15.647Z,20.23
2023-06-07T22:48:19.761Z,20.18
2023-06-07T22:53:21.301Z,20.12
2023-06-07T22:58:22.864Z,20.05
2023-06-07T23:03:24.418Z,19.94
2023-06-07T23:08:26.864Z,19.87
2023-06-07T23:13:28.250Z,19.87
2023-06-07T23:18:31.402Z,19.88
2023-06-07T23:23:33.752Z,19.87
2023-06-07T23:28:35.577Z,19.82
2023-06-07T23:33:37.827Z,19.77
2023-06-07T23:38:39.182Z,19.71
2023-06-07T23:43:40.653Z,19.67
2023-06-07T23:48:42.290Z,19.69
2023-06-07T23:53:43.664Z,19.71
2023-06-07T23:58:45.243Z,19.74
